Stove Prairie

Current Conditions

Time05/06/2021 07:15 PM MST
Location40.619167,-105.356944
Elevation7,349 FT
Air Temp53°F
Surface Temp61°F
Dew Point Temp35°F
PrecipitationNone None
Relative Humidity50%
Visibility6,562 FT
Pressure781 MB

Click a photo to enlarge.

191°4 mph
Wind from @ 4 mph

Past 24 Hours

All Data

Previous 24h observations for Stove Prairie
Time Air Temp
(°F)
Surface
(°F)
Dew Point
(°F)
Precip. Relative
Humidity
Wind Direction Wind Speed (mph) Visibility (ft) Pressure
(mb)
07:15 PM536135None50S46,562781
07:00 PM546235None49S66,562781
06:45 PM546335None50S76,562781
06:30 PM556336None48SSW56,562781
06:15 PM556435None47S106,562781
06:00 PM556435None46S126,562781
05:45 PM556835None46S106,562781
05:30 PM557035None45S96,562781
05:15 PM567035None45S76,562781
05:00 PM557034None45S76,562781
04:45 PM557135None48S106,562781
04:30 PM557136None48S116,562781
04:15 PM567536None49SSW66,562781
04:00 PM568037None49SSW46,562782
03:45 PM558634None46S106,562782
03:30 PM548934None47S116,562782
03:15 PM559333None40S106,562782
03:00 PM559430None37S136,562782
02:45 PM559529None35S86,562782
02:30 PM559533None43S106,562782
02:15 PM559432None37S136,562782
02:00 PM549525None35S96,562782
01:45 PM549431None40S86,562782
01:30 PM549331None42SSW66,562782
01:15 PM549327None33S126,562783
01:00 PM549227None34S96,562783
12:45 PM559328None33SSW36,562783
12:30 PM549032None40S66,562783
12:15 PM528829None43S86,562783
12:00 PM528732None44S96,562783
11:45 AM508334None55S76,562783
11:30 AM498135None58S96,562784
11:15 AM487837None62SSE96,562784
11:00 AM477535None63SSE86,562784
10:45 AM467335None63S96,562784
10:30 AM467133None61S86,562784
10:15 AM446832None63S76,562784
10:00 AM436633None66SSE76,562784
09:45 AM426333None69SSE96,562784
09:30 AM416032None70S96,562784
09:15 AM405832None70SSE96,562784
09:00 AM405531None71S66,562784
08:45 AM395231None72SSE76,562784
08:30 AM384931None72SSE76,562784
08:15 AM374730None76SSE56,562784
08:00 AM364531None80SSE56,562784
07:45 AM354230None81SSE46,562784
07:30 AM344029None84S46,562784
07:15 AM343929None84S56,562784
07:00 AM333829None83SSE36,562784
06:45 AM323728None86S26,562784
06:30 AM323728None85SE26,562784
06:15 AM323728None84N06,562784
06:00 AM323828None83N06,562784
05:45 AM323828None83N06,562784
05:30 AM323828None84N06,562784
05:15 AM323828None83N06,562784
05:00 AM333628None82N06,562784
04:45 AM323728None86NW26,562784
04:30 AM333628None82N16,562784
04:15 AM343828None80N06,562784
04:00 AM353829None78N06,562784
03:45 AM363929None75ESE16,562784
03:30 AM364129None75SE26,562784
03:15 AM364229None77N06,562784
03:00 AM354329None78N06,562784
02:45 AM354129None79N06,562784
02:30 AM343929None83N06,562784
02:15 AM343929None83NNE16,562784
02:00 AM344029None82WNW16,562784
01:45 AM343929None81NNE16,562784
01:30 AM344230None84WNW16,562784
01:15 AM343929None81N06,562784
01:00 AM354029None82NW16,562784
12:45 AM354030None81N06,562784
12:30 AM354130None80N06,562784
12:15 AM364230None78N06,562784
12:00 AM364130None79N06,562784
11:45 PM384231None76N26,562784
11:30 PM374131None76N26,562784
11:15 PM374331None78N26,562784
11:00 PM374230None77NNW26,562784
10:45 PM384431None76NNW46,562783
10:30 PM384432None76N26,562783
10:15 PM394532None75N06,562783
10:00 PM404733None73SSE26,562783
09:45 PM394532None75SE26,562783
09:30 PM404632None74E26,562783
09:15 PM404732None73N06,562783
09:00 PM404732None73N06,562783
08:45 PM414632None72W16,562782
08:30 PM424833None69S46,562782
08:15 PM434833None68S66,562782
08:00 PM434933None67S66,562782
07:45 PM444832None63S116,562782
07:30 PM495122None34WSW16,562782

Red Feather Lakes

Current Conditions

Time05/06/2021 07:15 PM MST
Location40.790278,-105.574167
Elevation8,238 FT
Air Temp53°F
Surface Temp74°F
Dew Point Temp34°F
Relative Humidity49%
Visibility6,562 FT
Pressure756 MB

Click a photo to enlarge.

99°3 mph
Wind from @ 3 mph

Past 24 Hours

All Data

Previous 24h observations for Red Feather Lakes
Time Air Temp
(°F)
Surface
(°F)
Dew Point
(°F)
Precip. Relative
Humidity
Wind Direction Wind Speed (mph) Visibility (ft) Pressure
(mb)
07:15 PM53743449E36,562756
07:00 PM53773448SE26,562756
06:45 PM53783346ENE86,562756
06:30 PM54803346E76,562756
06:15 PM54833445SE56,562756
06:00 PM55863343ESE66,562756
05:45 PM56903342ESE46,562756
05:30 PM57923340SSE86,562756
05:15 PM56933341SE76,562756
05:00 PM56953342E76,562756
04:45 PM56973240ESE66,562756
04:30 PM57993239SSE76,562756
04:15 PM561003240SE106,562756
04:00 PM561013341SE96,562756
03:45 PM561013240SSE96,562756
03:30 PM561033443ESE96,562756
03:15 PM561013545E116,562756
03:00 PM561033139E106,562756
02:45 PM571043239SE86,562756
02:30 PM561043138SE66,562756
02:15 PM561033241ESE86,562756
02:00 PM561023037SE96,562757
01:45 PM561023038ENE66,562757
01:30 PM591052323W86,562757
01:15 PM581041216NNW106,562757
01:00 PM581041418NNW46,562757
12:45 PM571011620N96,562757
12:30 PM56991117NNW86,562757
12:15 PM55971117NNW86,562757
12:00 PM56951520WNW136,562758
11:45 AM55921622W156,562758
11:30 AM55901420W156,562758
11:15 AM54871621W146,562758
11:00 AM54851522NW96,562758
10:45 AM53821926WNW126,562758
10:30 AM53781623W136,562758
10:15 AM53751725NNW96,562758
10:00 AM52721523NNW106,562758
09:45 AM51681523NW126,562758
09:30 AM50641525WNW136,562758
09:15 AM49601626WNW146,562758
09:00 AM49571626WNW126,562758
08:45 AM49531525NW146,562758
08:30 AM48501527WNW116,562758
08:15 AM47481627NW86,562758
08:00 AM42422143NE16,562758
07:45 AM35382362N06,562758
07:30 AM33332365WSW26,562758
07:15 AM32311957SW26,562758
07:00 AM32311958SW26,562758
06:45 AM30331963N06,562758
06:30 AM28341864WSW26,562758
06:15 AM27341970W16,562758
06:00 AM27351871WSW56,562758
05:45 AM27351974W46,562758
05:30 AM27351974WSW46,562758
05:15 AM26352077WSW76,562758
05:00 AM27362076W66,562758
04:45 AM27362075WSW56,562758
04:30 AM27362076WSW46,562758
04:15 AM27372177WSW56,562758
04:00 AM26372079WSW66,562758
03:45 AM26372178WSW46,562758
03:30 AM27372180WSW46,562758
03:15 AM28382177W36,562758
03:00 AM28382279W46,562758
02:45 AM28382280WNW26,562758
02:30 AM28382277WSW46,562758
02:15 AM29392276W46,562758
02:00 AM28392277W56,562758
01:45 AM28402278W56,562758
01:30 AM28402278W46,562758
01:15 AM29412276WSW46,562758
01:00 AM29412376WSW46,562758
12:45 AM29422376W16,562758
12:30 AM30422376W56,562758
12:15 AM31432475W46,562758
12:00 AM31432371W56,562758
11:45 PM32442575N06,562758
11:30 PM34452673WSW36,562758
11:15 PM35452670NE26,562758
11:00 PM35452464E26,562758
10:45 PM35452362ENE56,562758
10:30 PM36482154NE46,562757
10:15 PM35462463NW16,562757
10:00 PM37482458N06,562757
09:45 PM37492254W16,562757
09:30 PM38482254WNW26,562757
09:15 PM39502249W36,562757
09:00 PM40512247W36,562757
08:45 PM41522247W36,562757
08:30 PM41532246W46,562756
08:15 PM43552243WNW66,562756
08:00 PM43572141WNW66,562756
07:45 PM44582139WNW66,562756
07:30 PM45602138NW66,562756

Pinewood Reservoir

Current Conditions

Time05/06/2021 07:15 PM MST
Location40.3647,-105.2867
Elevation6,580 FT
Air Temp58°F
Surface Temp71°F
Dew Point Temp35°F
PrecipitationNone None
Relative Humidity43%
Visibility6,562 FT
Pressure797 MB
Level of Grip82.0
State of Surface4.0

Click a photo to enlarge.

178°7 mph
Wind from @ 7 mph

Past 24 Hours

All Data

Previous 24h observations for Pinewood Reservoir
Time Air Temp
(°F)
Surface
(°F)
Dew Point
(°F)
Precip. Relative
Humidity
Wind Direction Wind Speed (mph) Visibility (ft) Pressure
(mb)
Level of GripState Surface
07:15 PM587135None43S76,562797824
07:00 PM587337None45N06,562797824
06:45 PM587636None44SSW16,562797824
06:30 PM587837None45SE36,562797824
06:15 PM588035None43ESE36,562797824
06:00 PM578236None44E36,562797824
05:45 PM578436None44SE46,562797824
05:30 PM578736None46NNE86,562797824
05:15 PM578836None45NE76,562797824
05:00 PM579037None47NE106,562797824
04:45 PM579236None45ENE96,562797824
04:30 PM589337None46SE86,562797824
04:15 PM579536None46NE96,562798824
04:00 PM579636None45ENE66,562798824
03:45 PM569637None48ENE96,562798824
03:30 PM569835None44S46,562798824
03:15 PM569836None47SSE76,562798824
03:00 PM559837None51ENE86,562798824
02:45 PM569837None50ESE96,562798824
02:30 PM559937None51ENE56,562798824
02:15 PM559836None49ESE96,562798824
02:00 PM559936None49SE66,562799824
01:45 PM549937None53ENE116,562799824
01:30 PM539838None55E66,562799824
01:15 PM539737None56E56,562799824
01:00 PM539637None55SE76,562799824
12:45 PM539538None57E86,562799824
12:30 PM519337None59E66,562800824
12:15 PM509237None61NE76,562800824
12:00 PM499137None61NE96,562800824
11:45 AM498936None62NE56,562800824
11:30 AM488736None63NE66,562800824
11:15 AM478436None65NE46,562800824
11:00 AM478236None64ENE66,562800824
10:45 AM468036None68NE66,562800824
10:30 AM467836None68NE66,562800824
10:15 AM457535None67NE56,562801824
10:00 AM457235None67NE66,562801824
09:45 AM457035None66E56,562801824
09:30 AM446733None65S36,562801824
09:15 AM436433None67SE46,562801824
09:00 AM436233None68WNW26,562801824
08:45 AM425933None70SSW46,562801824
08:30 AM425633None72NE46,562801824
08:15 AM405432None71W26,562801824
08:00 AM405131None72W36,562801824
07:45 AM384931None75W26,562801824
07:30 AM374731None77W36,562801824
07:15 AM364430None79W36,562801824
07:00 AM354330None81WSW46,562801824
06:45 AM343929None82SW36,562801824
06:30 AM363930None80WSW36,562801824
06:15 AM353930None83WSW46,562801824
06:00 AM343830None84SW26,562801824
05:45 AM343830None82SSW26,562801824
05:30 AM353829None81SSW26,562801824
05:15 AM364030None80N06,562801824
05:00 AM364030None79W26,562801824
04:45 AM364030None80N06,562801824
04:30 AM374131None77N06,562801824
04:15 AM374031None78S26,562801824
04:00 AM374130None78N06,562801824
03:45 AM374031None78NNW26,562801824
03:30 AM374131None78NNE66,562801824
03:15 AM374231None78NE66,562801824
03:00 AM374031None80NE46,562801824
02:45 AM384331None76SSW26,562801824
02:30 AM374131None80SW36,562801824
02:15 AM374131None78SW36,562801824
02:01 AM374231None78SW36,562801824
01:45 AM394332None76SW36,562801824
01:30 AM394231None74WSW36,562801824
01:15 AM394331None75SW46,562801824
01:00 AM404432None73W36,562801824
12:45 AM414432None70NNW26,562800824
12:30 AM414433None71N36,562800824
12:15 AM414433None72N66,562800824
12:00 AM424533None70NNE76,562800824
11:45 PM434632None66NNE76,562800824
11:30 PM424532None67NE26,562800824
11:15 PM434832None64NNE16,562800824
11:00 PM404632None73S26,562800824
10:30 PM384533None84WSW56,562799824
10:15 PM394734None81WSW56,562800824
10:00 PM404734None78WSW46,562799824
09:45 PM424834None73SW46,562799824
09:30 PM414934None75WSW46,562799824
09:15 PM424934None73WSW56,562799824
09:00 PM425034None73W66,562799824
08:45 PM445234None69WSW46,562799824
08:30 PM455235None68W46,562799824
08:15 PM465335None67SW36,562799824
08:00 PM475534None61SSE76,562798824
07:45 PM465536None66NE46,562798824
07:30 PM495736None62SSW46,562798824

Masonville

Current Conditions

Time05/06/2021 07:15 PM MST
Location40.4875,-105.2108
Elevation5,387 FT
Air Temp64°F
Surface Temp78°F
Dew Point Temp38°F
PrecipitationNone None
Relative Humidity39%
Visibility6,562 FT
Pressure838 MB

Click a photo to enlarge.

156°3 mph
Wind from @ 3 mph

Past 24 Hours

All Data

Previous 24h observations for Masonville
Time Air Temp
(°F)
Surface
(°F)
Dew Point
(°F)
Precip. Relative
Humidity
Wind Direction Wind Speed (mph) Visibility (ft) Pressure
(mb)
07:15 PM647838None39SSE36,562838
07:00 PM658039None39SE46,562838
06:45 PM648339None38SSE46,562838
06:30 PM648538None37SSE76,562838
06:15 PM648738None38SSE86,562838
06:00 PM658938None38SSE76,562838
05:45 PM659139None39S76,562838
05:30 PM649337None37SSE76,562838
05:15 PM32953238ESE40838
05:00 PM649638None38S76,562838
04:45 PM649837None37SE56,562838
04:30 PM329832N000
04:15 PM6310038None40S96,562839
04:00 PM6410136None36SSE116,562839
03:45 PM6310337None38SE56,562839
03:32 PM623240None43SSE40839
03:15 PM6210339None43SSE56,562839
03:00 PM6210439None43SSE66,562839
02:45 PM6010337None42SSE76,562840
02:30 PM6110438None42ESE76,562840
02:15 PM6010340None46SSE76,562840
02:00 PM6010339None47SSE46,562840
01:45 PM5910238None45SSE86,562840
01:15 PM5810038None47SSE56,562841
01:00 PM321003250S80841
12:45 PM579938None49S76,562841
12:30 PM32323248SE40841
12:15 PM569639None51SSW16,562841
12:00 PM559338None53S56,562842
11:30 AM539037None54ESE46,562842
11:00 AM528437None55W46,562842
10:45 AM528237None57SE46,562842
10:30 AM517937None57SSE36,562843
10:15 AM507736None58SSE36,562843
10:00 AM517336None58E36,562843
09:45 AM497136None60SE46,562843
09:30 AM486835None61SSE66,562843
09:15 AM476535None64SSW46,562843
09:00 AM466235None64S46,562843
08:45 AM475835None63S36,562843
08:30 AM465434None63N06,562844
08:15 AM323232S00844
08:00 AM454934None66N06,562844
07:45 AM444534None69NW16,562844
07:30 AM32423274N00844
07:15 AM414233None75ENE26,562844
07:00 AM394232None76N06,562844
06:45 AM384432None78N06,562844
06:30 AM374432None81E26,562844
06:15 AM384332None80N06,562844
06:00 AM384332None79N06,562844
05:45 AM384432None80N06,562844
05:30 AM394332None77W16,562844
05:15 AM394332None76SE26,562844
05:00 AM414433None74N06,562843
04:45 AM424433None72W16,562843
04:30 AM424433None71E26,562843
04:15 AM424633None70NW36,562843
03:45 AM444634None68N06,562843
03:30 AM444734None68N06,562843
03:15 AM444734None67NW46,562843
03:00 AM444834None66NNW76,562843
02:45 AM444834None67NNW76,562843
02:30 AM444833None65NNW96,562843
02:15 AM434733None70NNW26,562843
02:00 AM434734None70N26,562843
01:45 AM433234None71ENE36,562843
01:30 AM424734None74NE26,562843
01:15 AM434835None71NNW26,562843
01:00 AM434735None71ENE16,562843
12:45 AM444835None70NNW36,562843
12:15 AM464935None65NNW46,562843
12:00 AM464935None66NNW36,562842
11:30 PM445135None72NNW36,562842
11:00 PM445037None76NNE16,562842
10:45 PM445137None75N06,562841
10:30 PM445137None75N06,562841
10:00 PM323232N00841
09:30 PM495437None64NNW36,562841
09:15 PM495537None62N06,562841
09:00 PM505437None61N06,562841
08:45 PM515637None60SSE26,562840
08:30 PM525737None58ESE36,562840
08:17 PM525738None58E36,562840
08:00 PM535838None57SE26,562840
07:45 PM546037None52SE26,562840
07:30 PM556237None50SE46,562840

Show All Locations

Page refreshes in :